createdAt,value
2018-06-23T00:01:21.713Z,4.67
2018-06-23T00:03:49.799Z,4.50
2018-06-23T00:06:17.891Z,4.83
2018-06-23T00:08:45.983Z,3.70
2018-06-23T00:11:14.194Z,5.23
2018-06-23T00:13:42.384Z,4.77
2018-06-23T00:16:11.088Z,5.77
2018-06-23T00:18:39.461Z,4.87
2018-06-23T00:21:07.572Z,6.62
2018-06-23T00:23:35.749Z,7.03
2018-06-23T00:26:09.280Z,6.53
2018-06-23T00:28:38.037Z,7.60
2018-06-23T00:31:06.454Z,5.33
2018-06-23T00:33:34.648Z,6.30
2018-06-23T00:36:02.867Z,4.90
2018-06-23T00:38:30.952Z,5.30
2018-06-23T00:40:59.033Z,4.47
2018-06-23T00:43:27.437Z,4.70
2018-06-23T00:45:55.505Z,4.37
2018-06-23T00:48:23.695Z,4.77
2018-06-23T00:50:51.787Z,4.40
2018-06-23T00:53:19.903Z,5.23
2018-06-23T00:55:48.061Z,4.63
2018-06-23T00:58:16.809Z,5.00
2018-06-23T01:00:45.339Z,5.00
2018-06-23T01:03:13.508Z,4.40
2018-06-23T01:05:41.832Z,5.90
2018-06-23T01:08:09.916Z,5.60
2018-06-23T01:10:38.152Z,4.95
2018-06-23T01:13:06.344Z,5.57
2018-06-23T01:15:34.460Z,5.10
2018-06-23T01:18:02.640Z,4.27
2018-06-23T01:20:30.720Z,4.47
2018-06-23T01:22:58.790Z,5.40
2018-06-23T01:25:26.964Z,4.50
2018-06-23T01:27:56.535Z,4.10
2018-06-23T01:30:24.696Z,4.90
2018-06-23T01:32:52.799Z,4.40
2018-06-23T01:35:20.965Z,5.67
2018-06-23T01:37:49.295Z,5.43
2018-06-23T01:40:17.376Z,4.37
2018-06-23T01:42:45.595Z,4.20
2018-06-23T01:45:13.664Z,4.17
2018-06-23T01:47:41.781Z,4.80
2018-06-23T01:50:09.920Z,5.50
2018-06-23T01:52:39.040Z,3.97
2018-06-23T01:55:07.384Z,4.57
2018-06-23T01:57:35.505Z,4.50
2018-06-23T02:00:03.576Z,4.00
2018-06-23T02:02:31.796Z,3.57
2018-06-23T02:04:59.932Z,3.30
2018-06-23T02:07:28.076Z,3.60
2018-06-23T02:09:56.160Z,4.10
2018-06-23T02:12:24.344Z,4.20
2018-06-23T02:14:57.792Z,3.63
2018-06-23T02:17:31.380Z,3.67
2018-06-23T02:20:04.839Z,3.27
2018-06-23T02:22:38.203Z,5.10
2018-06-23T02:25:11.528Z,4.57
2018-06-23T02:27:44.924Z,4.00
2018-06-23T02:30:18.624Z,4.40
2018-06-23T02:32:50.949Z,4.20
2018-06-23T02:35:19.300Z,6.67
2018-06-23T02:37:47.384Z,5.60
2018-06-23T02:40:15.594Z,5.60
2018-06-23T02:42:43.797Z,5.58
2018-06-23T02:45:12.566Z,6.28
2018-06-23T02:47:40.764Z,5.63
2018-06-23T02:50:08.852Z,5.77
2018-06-23T02:52:36.991Z,5.50
2018-06-23T02:55:05.235Z,4.53
2018-06-23T02:57:33.348Z,4.50
2018-06-23T03:00:01.657Z,5.27
2018-06-23T03:02:29.657Z,5.07
2018-06-23T03:04:57.716Z,5.97
2018-06-23T03:07:25.899Z,6.23
2018-06-23T03:09:56.033Z,7.23
2018-06-23T03:12:24.164Z,6.30
2018-06-23T03:14:52.292Z,5.73
2018-06-23T03:17:20.468Z,6.57
2018-06-23T03:19:49.905Z,6.67
2018-06-23T03:22:18.276Z,8.93
2018-06-23T03:24:46.814Z,6.08
2018-06-23T03:27:15.155Z,5.90
2018-06-23T03:29:44.039Z,6.67
2018-06-23T03:32:12.531Z,5.40
2018-06-23T03:34:40.668Z,6.50
2018-06-23T03:37:08.746Z,5.37
2018-06-23T03:39:37.113Z,6.50
2018-06-23T03:42:05.396Z,5.33
2018-06-23T03:44:33.679Z,6.07
2018-06-23T03:47:01.957Z,5.53
2018-06-23T03:49:30.610Z,5.08
2018-06-23T03:51:59.155Z,5.60
2018-06-23T03:54:27.374Z,5.00
2018-06-23T03:56:56.376Z,5.13
2018-06-23T03:59:24.491Z,5.40
2018-06-23T04:01:52.939Z,4.63
2018-06-23T04:04:21.036Z,4.53
2018-06-23T04:06:49.993Z,5.27
2018-06-23T04:09:18.232Z,4.47
2018-06-23T04:11:46.345Z,4.50
2018-06-23T04:14:14.412Z,4.57
2018-06-23T04:16:42.822Z,5.30
2018-06-23T04:19:10.980Z,6.33
2018-06-23T04:21:39.157Z,6.40
2018-06-23T04:24:07.215Z,5.60
2018-06-23T04:26:35.399Z,5.03
2018-06-23T04:29:03.559Z,4.20
2018-06-23T04:31:31.636Z,3.90
2018-06-23T04:33:59.808Z,4.40
2018-06-23T04:36:27.923Z,4.20
2018-06-23T04:38:56.101Z,3.93
2018-06-23T04:41:24.275Z,4.33
2018-06-23T04:43:52.477Z,5.70
2018-06-23T04:46:20.591Z,4.33
2018-06-23T04:48:48.801Z,5.37
2018-06-23T04:51:17.096Z,4.20
2018-06-23T04:53:47.336Z,5.90
2018-06-23T04:56:16.947Z,5.93
2018-06-23T04:58:45.127Z,5.03
2018-06-23T05:01:13.340Z,4.40
2018-06-23T05:03:41.484Z,6.33
2018-06-23T05:06:09.761Z,5.83
2018-06-23T05:08:38.794Z,5.57
2018-06-23T05:11:07.215Z,4.40
2018-06-23T05:13:35.411Z,4.70
2018-06-23T05:16:03.698Z,4.90
2018-06-23T05:18:31.868Z,5.20
2018-06-23T05:21:00.191Z,4.00
2018-06-23T05:23:28.316Z,5.00
2018-06-23T05:25:56.423Z,4.60
2018-06-23T05:28:24.576Z,3.30
2018-06-23T05:30:52.840Z,3.77
2018-06-23T05:33:22.253Z,5.27
2018-06-23T05:35:50.520Z,4.92
2018-06-23T05:38:18.649Z,3.47
2018-06-23T05:40:47.051Z,4.07
2018-06-23T05:43:15.175Z,4.97
2018-06-23T05:45:44.012Z,3.60
2018-06-23T05:48:12.439Z,3.67
2018-06-23T05:50:40.900Z,3.80
2018-06-23T05:53:09.958Z,3.73
2018-06-23T05:55:38.093Z,3.50
2018-06-23T05:58:06.332Z,4.10
2018-06-23T06:00:35.397Z,4.50
2018-06-23T06:03:04.335Z,4.72
2018-06-23T06:05:32.589Z,5.07
2018-06-23T06:08:00.796Z,5.70
2018-06-23T06:10:28.998Z,3.30
2018-06-23T06:12:57.256Z,3.97
2018-06-23T06:15:25.984Z,3.67
2018-06-23T06:17:54.188Z,4.27
2018-06-23T06:20:22.292Z,3.43
2018-06-23T06:22:50.607Z,4.10
2018-06-23T06:25:20.315Z,4.08
2018-06-23T06:27:48.559Z,3.70
2018-06-23T06:30:17.022Z,4.40
2018-06-23T06:32:45.832Z,3.67
2018-06-23T06:35:14.204Z,3.90
2018-06-23T06:37:42.312Z,4.30
2018-06-23T06:40:10.448Z,4.70
2018-06-23T06:42:40.096Z,4.87
2018-06-23T06:45:08.447Z,5.42
2018-06-23T06:47:36.750Z,4.43
2018-06-23T06:50:05.674Z,4.72
2018-06-23T06:52:33.923Z,5.23
2018-06-23T06:55:02.046Z,4.10
2018-06-23T06:57:30.122Z,3.80
2018-06-23T06:59:58.227Z,4.67
2018-06-23T07:02:26.591Z,4.83
2018-06-23T07:04:54.856Z,5.83
2018-06-23T07:07:23.045Z,5.10
2018-06-23T07:09:51.207Z,4.90
2018-06-23T07:12:19.327Z,4.97
2018-06-23T07:14:47.667Z,5.43
2018-06-23T07:17:15.819Z,5.47
2018-06-23T07:19:44.188Z,4.10
2018-06-23T07:22:12.604Z,5.62
2018-06-23T07:24:40.713Z,5.60
2018-06-23T07:27:08.808Z,6.30
2018-06-23T07:29:38.553Z,6.03
2018-06-23T07:32:06.765Z,6.33
2018-06-23T07:34:35.003Z,5.33
2018-06-23T07:37:03.140Z,5.20
2018-06-23T07:39:34.077Z,5.50
2018-06-23T07:42:03.338Z,7.00
2018-06-23T07:44:31.583Z,6.13
2018-06-23T07:46:59.825Z,5.63
2018-06-23T07:49:37.968Z,6.87
2018-06-23T07:52:07.892Z,5.00
2018-06-23T07:54:38.897Z,5.77
2018-06-23T07:57:08.169Z,5.83
2018-06-23T07:59:38.188Z,5.97
2018-06-23T08:02:07.560Z,6.70
2018-06-23T08:04:37.344Z,7.40
2018-06-23T08:07:07.006Z,6.90
2018-06-23T08:09:37.149Z,5.47
2018-06-23T08:12:06.596Z,6.40
2018-06-23T08:14:36.085Z,6.17
2018-06-23T08:17:04.493Z,5.67
2018-06-23T08:19:33.801Z,5.57
2018-06-23T08:22:03.396Z,5.30
2018-06-23T08:24:32.349Z,5.00
2018-06-23T08:27:05.027Z,4.73
2018-06-23T08:29:33.533Z,4.50
2018-06-23T08:32:02.643Z,5.00
2018-06-23T08:34:31.593Z,4.20
2018-06-23T08:37:01.387Z,4.53
2018-06-23T08:39:30.709Z,5.13
2018-06-23T08:42:01.792Z,4.97
2018-06-23T08:44:31.228Z,5.37
2018-06-23T08:47:00.228Z,4.53
2018-06-23T08:49:29.756Z,4.70
2018-06-23T08:51:58.589Z,4.73
2018-06-23T08:54:27.317Z,5.70
2018-06-23T08:56:56.027Z,4.72
2018-06-23T08:59:24.647Z,6.07
2018-06-23T09:01:55.033Z,5.95
2018-06-23T09:04:24.009Z,4.00
2018-06-23T09:06:53.191Z,6.40
2018-06-23T09:09:22.129Z,4.72
2018-06-23T09:11:50.482Z,4.53
2018-06-23T09:14:19.043Z,5.00
2018-06-23T09:16:47.566Z,5.40
2018-06-23T09:19:15.814Z,4.03
2018-06-23T09:21:44.191Z,3.63
2018-06-23T09:24:14.412Z,4.40
2018-06-23T09:26:42.612Z,4.17
2018-06-23T09:29:10.786Z,4.10
2018-06-23T09:31:39.102Z,4.50
2018-06-23T09:34:07.656Z,4.60
2018-06-23T09:36:36.044Z,4.90
2018-06-23T09:39:07.367Z,4.47
2018-06-23T09:41:36.625Z,4.30
2018-06-23T09:44:05.352Z,4.17
2018-06-23T09:46:38.080Z,4.73
2018-06-23T09:49:07.104Z,4.80
2018-06-23T09:51:36.081Z,5.33
2018-06-23T09:54:05.594Z,4.40
2018-06-23T09:56:34.014Z,4.97
2018-06-23T09:59:02.793Z,5.70
2018-06-23T10:01:31.141Z,4.67
2018-06-23T10:03:59.340Z,6.77
2018-06-23T10:06:27.861Z,5.58
2018-06-23T10:08:56.022Z,4.90
2018-06-23T10:11:24.864Z,7.07
2018-06-23T10:13:54.129Z,5.37
2018-06-23T10:16:23.055Z,5.50
2018-06-23T10:18:51.302Z,5.15
2018-06-23T10:21:19.487Z,5.13
2018-06-23T10:23:47.928Z,4.33
2018-06-23T10:26:16.550Z,4.37
2018-06-23T10:28:44.770Z,5.50
2018-06-23T10:31:13.357Z,5.27
2018-06-23T10:33:41.718Z,4.90
2018-06-23T10:36:10.380Z,5.43
2018-06-23T10:38:38.626Z,5.17
2018-06-23T10:41:07.581Z,5.50
2018-06-23T10:43:35.810Z,5.20
2018-06-23T10:46:05.025Z,6.40
2018-06-23T10:48:35.262Z,5.57
2018-06-23T10:51:03.511Z,5.70
2018-06-23T10:53:33.329Z,6.00
2018-06-23T10:56:01.676Z,5.53
2018-06-23T10:58:30.037Z,6.73
2018-06-23T11:00:58.377Z,6.10
2018-06-23T11:03:27.311Z,4.87
2018-06-23T11:05:55.951Z,6.37
2018-06-23T11:08:24.312Z,5.83
2018-06-23T11:10:54.523Z,6.33
2018-06-23T11:13:23.762Z,6.30
2018-06-23T11:15:52.194Z,5.30
2018-06-23T11:18:20.502Z,5.60
2018-06-23T11:20:49.300Z,4.90
2018-06-23T11:23:17.967Z,6.07
2018-06-23T11:25:46.692Z,4.37
2018-06-23T11:28:15.038Z,5.65
2018-06-23T11:30:43.394Z,5.20
2018-06-23T11:33:11.600Z,5.30
2018-06-23T11:35:40.458Z,5.33
2018-06-23T11:38:08.780Z,4.50
2018-06-23T11:40:37.136Z,5.47
2018-06-23T11:43:05.411Z,4.50
2018-06-23T11:45:34.620Z,4.53
2018-06-23T11:48:04.064Z,4.87
2018-06-23T11:50:32.639Z,5.08
2018-06-23T11:53:01.143Z,5.30
2018-06-23T11:55:29.821Z,5.70
2018-06-23T11:57:58.259Z,4.75
2018-06-23T12:00:26.777Z,5.17
2018-06-23T12:02:55.514Z,4.03
2018-06-23T12:05:23.707Z,4.40
2018-06-23T12:07:52.751Z,3.60
2018-06-23T12:10:22.834Z,3.00
2018-06-23T12:12:51.464Z,4.20
2018-06-23T12:15:19.633Z,3.87
2018-06-23T12:17:48.529Z,4.42
2018-06-23T12:20:18.189Z,4.37
2018-06-23T12:22:48.162Z,3.87
2018-06-23T12:25:18.200Z,2.47
2018-06-23T12:27:48.166Z,3.50
2018-06-23T12:30:16.684Z,3.20
2018-06-23T12:32:46.112Z,2.83
2018-06-23T12:35:14.450Z,2.90
2018-06-23T12:37:43.322Z,2.50
2018-06-23T12:40:14.404Z,2.50
2018-06-23T12:42:42.900Z,2.87
2018-06-23T12:45:11.405Z,2.40
2018-06-23T12:47:40.422Z,2.20
2018-06-23T12:50:09.238Z,2.50
2018-06-23T12:52:38.285Z,2.37
2018-06-23T12:55:07.067Z,2.55
2018-06-23T12:57:35.629Z,2.23
2018-06-23T13:00:04.762Z,1.92
2018-06-23T13:02:33.985Z,3.10
2018-06-23T13:05:02.768Z,1.85
2018-06-23T13:07:31.536Z,2.50
2018-06-23T13:10:00.664Z,2.07
2018-06-23T13:12:29.481Z,2.30
2018-06-23T13:14:57.889Z,2.10
2018-06-23T13:17:26.886Z,2.40
2018-06-23T13:19:56.146Z,2.07
2018-06-23T13:22:24.701Z,2.22
2018-06-23T13:24:53.747Z,2.80
2018-06-23T13:27:22.609Z,2.70
2018-06-23T13:29:51.112Z,2.70
2018-06-23T13:32:21.061Z,2.98
2018-06-23T13:34:50.706Z,3.00
2018-06-23T13:37:19.222Z,2.20
2018-06-23T13:39:47.686Z,3.27
2018-06-23T13:42:16.064Z,1.90
2018-06-23T13:44:45.042Z,2.10
2018-06-23T13:47:13.409Z,2.83
2018-06-23T13:49:41.538Z,2.40
2018-06-23T13:52:09.906Z,2.50
2018-06-23T13:54:39.041Z,2.33
2018-06-23T13:57:07.462Z,2.37
2018-06-23T13:59:35.836Z,2.10
2018-06-23T14:02:04.513Z,2.20
2018-06-23T14:04:33.172Z,3.47
2018-06-23T14:07:02.464Z,2.52
2018-06-23T14:09:30.854Z,3.20
2018-06-23T14:11:59.036Z,1.97
2018-06-23T14:14:27.396Z,2.43
2018-06-23T14:16:57.244Z,2.20
2018-06-23T14:19:25.734Z,2.33
2018-06-23T14:21:54.184Z,2.50
2018-06-23T14:24:25.225Z,2.35
2018-06-23T14:26:56.155Z,1.80
2018-06-23T14:29:25.311Z,2.55
2018-06-23T14:31:53.969Z,2.20
2018-06-23T14:34:23.418Z,2.22
2018-06-23T14:36:52.196Z,2.47
2018-06-23T14:39:20.676Z,2.23
2018-06-23T14:41:49.477Z,2.90
2018-06-23T14:44:18.778Z,2.50
2018-06-23T14:46:47.189Z,4.97
2018-06-23T14:49:15.508Z,5.33
2018-06-23T14:51:44.405Z,2.70
2018-06-23T14:54:13.790Z,3.00
2018-06-23T14:56:44.872Z,3.03
2018-06-23T14:59:14.224Z,6.50
2018-06-23T15:01:46.149Z,2.10
2018-06-23T15:04:16.246Z,2.33
2018-06-23T15:07:02.730Z,2.27
2018-06-23T15:09:42.076Z,2.00
2018-06-23T15:12:21.393Z,2.50
2018-06-23T15:14:49.885Z,2.50
2018-06-23T15:17:20.294Z,2.67
2018-06-23T15:19:49.184Z,2.60
2018-06-23T15:22:20.424Z,2.17
2018-06-23T15:24:49.260Z,2.50
2018-06-23T15:27:18.373Z,2.10
2018-06-23T15:29:47.672Z,1.67
2018-06-23T15:32:17.854Z,2.23
2018-06-23T15:34:49.194Z,2.20
2018-06-23T15:37:19.455Z,2.43
2018-06-23T15:39:49.422Z,2.10
2018-06-23T15:42:18.582Z,1.70
2018-06-23T15:44:47.650Z,1.72
2018-06-23T15:47:18.225Z,2.67
2018-06-23T15:49:47.494Z,1.70
2018-06-23T15:52:17.402Z,2.33
2018-06-23T15:54:46.621Z,1.80
2018-06-23T15:57:16.910Z,2.52
2018-06-23T15:59:46.726Z,2.20
2018-06-23T16:02:15.740Z,2.40
2018-06-23T16:04:45.092Z,2.00
2018-06-23T16:07:14.670Z,2.22
2018-06-23T16:09:44.351Z,3.22
2018-06-23T16:12:14.903Z,1.77
2018-06-23T16:14:44.745Z,1.60
2018-06-23T16:17:14.462Z,1.50
2018-06-23T16:19:43.520Z,2.47
2018-06-23T16:22:12.901Z,2.07
2018-06-23T16:24:41.867Z,1.73
2018-06-23T16:27:17.213Z,2.33
2018-06-23T16:29:46.431Z,1.95
2018-06-23T16:32:15.980Z,2.17
2018-06-23T16:34:46.576Z,1.92
2018-06-23T16:37:15.847Z,1.67
2018-06-23T16:39:44.880Z,1.50
2018-06-23T16:42:14.922Z,1.60
2018-06-23T16:44:43.475Z,2.07
2018-06-23T16:47:12.340Z,1.77
2018-06-23T16:49:42.067Z,1.60
2018-06-23T16:52:11.894Z,2.07
2018-06-23T16:54:41.485Z,1.50
2018-06-23T16:57:17.143Z,1.30
2018-06-23T16:59:46.154Z,1.45
2018-06-23T17:02:14.882Z,1.75
2018-06-23T17:04:43.563Z,2.30
2018-06-23T17:07:13.321Z,2.00
2018-06-23T17:09:41.804Z,1.70
2018-06-23T17:12:11.153Z,1.70
2018-06-23T17:20:30.491Z,1.50
2018-06-23T17:23:00.499Z,2.00
2018-06-23T17:26:02.246Z,1.63
2018-06-23T17:28:35.846Z,1.93
2018-06-23T17:31:04.457Z,1.90
2018-06-23T17:33:33.772Z,1.60
2018-06-23T17:42:22.789Z,1.70
2018-06-23T17:47:47.521Z,2.00
2018-06-23T17:50:16.000Z,1.60
2018-06-23T17:52:46.328Z,1.80
2018-06-23T17:55:15.611Z,1.83
2018-06-23T18:03:41.753Z,2.07
2018-06-23T18:06:23.809Z,2.10
2018-06-23T18:11:44.404Z,2.30
2018-06-23T18:14:19.309Z,2.47
2018-06-23T18:16:50.509Z,1.77
2018-06-23T18:19:42.125Z,1.80
2018-06-23T18:22:11.645Z,2.43
2018-06-23T18:24:43.933Z,2.50
2018-06-23T18:27:12.680Z,2.40
2018-06-23T18:29:42.076Z,2.10
2018-06-23T18:32:10.805Z,2.30
2018-06-23T18:34:49.996Z,2.22
2018-06-23T18:37:25.292Z,2.70
2018-06-23T18:39:54.137Z,3.23
2018-06-23T18:42:23.378Z,2.57
2018-06-23T18:44:58.452Z,2.33
2018-06-23T18:47:27.025Z,2.13
2018-06-23T18:49:55.518Z,2.70
2018-06-23T18:52:26.225Z,2.63
2018-06-23T18:54:59.828Z,2.43
2018-06-23T18:57:31.349Z,3.20
2018-06-23T19:00:01.866Z,2.50
2018-06-23T19:02:38.280Z,2.40
2018-06-23T19:05:08.033Z,2.60
2018-06-23T19:07:36.812Z,3.10
2018-06-23T19:10:05.551Z,3.00
2018-06-23T19:12:45.121Z,3.69
2018-06-23T19:15:13.689Z,3.67
2018-06-23T19:20:35.481Z,3.20
2018-06-23T19:23:10.486Z,3.80
2018-06-23T19:25:39.341Z,3.97
2018-06-23T19:28:16.675Z,4.08
2018-06-23T19:30:45.681Z,3.85
2018-06-23T19:33:14.880Z,3.12
2018-06-23T19:35:43.425Z,3.65
2018-06-23T19:38:12.829Z,3.92
2018-06-23T19:40:59.146Z,4.80
2018-06-23T19:43:27.676Z,3.57
2018-06-23T19:45:58.224Z,3.27
2018-06-23T19:48:31.449Z,3.83
2018-06-23T19:58:05.723Z,3.15
2018-06-23T20:03:42.240Z,3.07
2018-06-23T20:06:14.615Z,3.40
2018-06-23T20:11:29.621Z,3.50
2018-06-23T20:14:06.101Z,3.33
2018-06-23T20:16:38.223Z,3.20
2018-06-23T20:19:14.232Z,3.30
2018-06-23T20:21:43.599Z,3.33
2018-06-23T20:24:13.104Z,3.70
2018-06-23T20:26:51.017Z,3.50
2018-06-23T20:29:21.228Z,3.42
2018-06-23T20:31:49.714Z,3.50
2018-06-23T20:34:18.495Z,3.47
2018-06-23T20:36:47.211Z,4.23
2018-06-23T20:39:20.944Z,3.63
2018-06-23T20:47:44.804Z,2.57
2018-06-23T20:50:15.756Z,2.95
2018-06-23T20:52:44.568Z,3.47
2018-06-23T20:55:31.320Z,3.90
2018-06-23T20:58:11.969Z,3.43
2018-06-23T21:00:57.057Z,3.57
2018-06-23T21:03:27.276Z,3.17
2018-06-23T21:09:01.340Z,3.60
2018-06-23T21:11:43.265Z,3.50
2018-06-23T21:14:25.461Z,3.23
2018-06-23T21:17:02.066Z,3.75
2018-06-23T21:19:31.156Z,3.10
2018-06-23T21:22:13.142Z,3.40
2018-06-23T21:24:42.148Z,3.43
2018-06-23T21:27:12.841Z,2.87
2018-06-23T21:29:41.376Z,3.43
2018-06-23T21:32:17.453Z,3.60
2018-06-23T21:34:47.113Z,3.73
2018-06-23T21:40:08.759Z,2.97
2018-06-23T21:42:37.737Z,3.50
2018-06-23T21:45:06.318Z,3.33
2018-06-23T21:47:35.267Z,3.40
2018-06-23T21:55:05.272Z,3.57
2018-06-23T21:57:34.720Z,4.43
2018-06-23T22:02:57.640Z,3.83
2018-06-23T22:05:34.460Z,3.70
2018-06-23T22:08:03.248Z,4.13
2018-06-23T22:10:32.009Z,3.25
2018-06-23T22:13:02.678Z,4.45
2018-06-23T22:15:31.467Z,3.30
2018-06-23T22:18:00.039Z,4.00
2018-06-23T22:20:29.445Z,3.17
2018-06-23T22:25:38.609Z,3.53
2018-06-23T22:28:07.441Z,3.10
2018-06-23T22:30:44.435Z,2.80
2018-06-23T22:33:13.876Z,3.35
2018-06-23T22:37:27.608Z,3.23
2018-06-23T22:43:01.745Z,4.40
2018-06-23T22:45:33.345Z,3.20
2018-06-23T22:48:08.644Z,3.60
2018-06-23T22:50:47.204Z,3.15
2018-06-23T22:53:16.261Z,3.23
2018-06-23T22:55:44.862Z,3.62
2018-06-23T23:30:46.351Z,2.90
2018-06-23T23:33:14.763Z,3.70
2018-06-23T23:35:43.450Z,4.00
2018-06-23T23:41:04.604Z,3.63
2018-06-23T23:43:33.392Z,3.83
2018-06-23T23:46:01.789Z,3.90
2018-06-23T23:48:45.720Z,3.33
2018-06-23T23:51:14.977Z,3.40
2018-06-23T23:56:54.248Z,3.79
2018-06-23T23:59:54.552Z,3.50
